Time;durP1;ratioP1;P1;durP2;ratioP2;P2;SDS_P1;SDS_P2;PMS_P1;PMS_P2;Temp;Humidity;BMP_temperature;BMP_pressure;BME280_temperature;BME280_humidity;BME280_pressure;Samples;Min_cycle;Max_cycle;Signal;HPM_P1;HPM_P2
2021/03/03 00:00:41;;;;;;;;;;;;;;;1.08;85.54;99944.34;1727008;81;20164;-75
2021/03/03 00:03:09;;;;;;;;;;;;;;;1.10;85.67;99944.13;1727311;82;20162;-77
2021/03/03 00:05:37;;;;;;;;;;;;;;;1.10;85.53;99941.44;1733698;81;20245;-76
2021/03/03 00:08:05;;;;;;;;;;;;;;;1.11;85.53;99945.81;1725942;82;20174;-77
2021/03/03 00:10:33;;;;;;;;;;;;;;;1.12;85.30;99948.30;1734847;81;20188;-76
2021/03/03 00:13:01;;;;;;;;;;;;;;;1.12;85.11;99946.11;1749210;82;20245;-77
2021/03/03 00:15:28;;;;;;;;;;;;;;;1.12;85.21;99949.64;1730345;81;20184;-75
2021/03/03 00:17:56;;;;;;;;;;;;;;;1.12;85.22;99941.56;1732081;81;20203;-77
2021/03/03 00:20:24;;;;;;;;;;;;;;;1.13;85.18;99941.05;1721609;81;20148;-77
2021/03/03 00:22:52;;;;;;;;;;;;;;;1.13;85.07;99941.05;1752037;81;20158;-77
2021/03/03 00:25:20;;;;;;;;;;;;;;;1.14;85.22;99948.09;1733427;81;20156;-78
2021/03/03 00:27:48;;;;;;;;;;;;;;;1.11;84.94;99945.27;1731422;81;20551;-80
2021/03/03 00:30:16;;;;;;;;;;;;;;;1.11;85.11;99948.51;1734030;82;20223;-78
2021/03/03 00:32:43;;;;;;;;;;;;;;;1.10;85.05;99941.44;1722125;81;20164;-77
2021/03/03 00:35:12;;;;;;;;;;;;;;;1.08;85.01;99947.03;1715093;82;20215;-76
2021/03/03 00:37:39;;;;;;;;;;;;;;;1.10;85.12;99949.52;1729168;81;20176;-75
2021/03/03 00:40:08;;;;;;;;;;;;;;;1.09;84.98;99954.07;1706669;83;20148;-77
2021/03/03 00:42:36;;;;;;;;;;;;;;;1.09;84.90;99949.19;1734356;81;20176;-76
2021/03/03 00:45:04;;;;;;;;;;;;;;;1.07;84.78;99952.60;1722107;83;20188;-75
2021/03/03 00:47:32;;;;;;;;;;;;;;;1.08;84.77;99948.89;1739900;81;20267;-78
2021/03/03 00:50:03;;;;;;;;;;;;;;;1.07;84.59;99963.37;1732602;82;20179;-75
2021/03/03 00:52:30;;;;;;;;;;;;;;;1.06;84.57;99964.43;1739856;81;20184;-76
2021/03/03 00:54:58;;;;;;;;;;;;;;;1.08;84.53;99965.06;1688221;84;20168;-79
2021/03/03 00:57:26;;;;;;;;;;;;;;;1.09;84.55;99964.85;1762629;80;20179;-75
2021/03/03 00:59:54;;;;;;;;;;;;;;;1.10;84.36;99971.08;1751023;81;20154;-74
2021/03/03 01:02:22;;;;;;;;;;;;;;;1.10;84.33;99972.43;1734007;81;20475;-76
2021/03/03 01:04:51;;;;;;;;;;;;;;;1.10;84.29;99979.17;1745171;81;20154;-76
2021/03/03 01:07:19;;;;;;;;;;;;;;;1.10;84.15;99968.39;1751285;82;20507;-76
2021/03/03 01:09:46;;;;;;;;;;;;;;;1.10;84.07;99975.12;1731980;81;20499;-75
2021/03/03 01:12:14;;;;;;;;;;;;;;;1.08;84.15;99970.45;1757444;82;20181;-76
2021/03/03 01:14:42;;;;;;;;;;;;;;;1.08;84.06;99977.19;1715095;83;20493;-76
2021/03/03 01:17:12;;;;;;;;;;;;;;;1.07;83.86;99991.68;1751534;82;20154;-76
2021/03/03 01:19:40;;;;;;;;;;;;;;;1.08;84.00;99983.92;1742151;81;20191;-77
2021/03/03 01:22:08;;;;;;;;;;;;;;;1.08;83.93;99989.31;1727670;83;20155;-75
2021/03/03 01:24:35;;;;;;;;;;;;;;;1.09;83.91;99990.97;1726150;81;20227;-75
2021/03/03 01:27:04;;;;;;;;;;;;;;;1.10;83.77;99998.88;1725732;83;20510;-75
2021/03/03 01:29:31;;;;;;;;;;;;;;;1.09;83.87;99990.45;1734961;80;20252;-75
2021/03/03 01:31:59;;;;;;;;;;;;;;;1.10;83.70;99995.34;1725908;83;20552;-75
2021/03/03 01:34:27;;;;;;;;;;;;;;;1.09;83.56;99992.31;1725081;80;20172;-75
2021/03/03 01:36:55;;;;;;;;;;;;;;;1.10;83.78;100004.77;1725907;83;20499;-75
2021/03/03 01:39:22;;;;;;;;;;;;;;;1.08;83.55;99996.89;1719362;83;20164;-75
2021/03/03 01:41:50;;;;;;;;;;;;;;;1.08;83.47;100000.09;1719016;81;20156;-76
2021/03/03 01:44:17;;;;;;;;;;;;;;;1.08;83.60;100006.33;1720738;82;20210;-77
2021/03/03 01:46:46;;;;;;;;;;;;;;;1.05;83.58;100004.02;1726456;81;20193;-76
2021/03/03 01:49:13;;;;;;;;;;;;;;;1.05;83.49;100008.56;1737531;82;20185;-77
2021/03/03 01:51:41;;;;;;;;;;;;;;;1.05;83.42;100008.56;1730426;81;20524;-77
2021/03/03 01:54:09;;;;;;;;;;;;;;;1.04;83.42;100006.37;1742634;82;20217;-76
2021/03/03 01:56:36;;;;;;;;;;;;;;;1.05;83.15;100013.95;1707744;82;20217;-76
2021/03/03 01:59:03;;;;;;;;;;;;;;;1.03;83.15;100012.81;1721898;83;20503;-75
2021/03/03 02:01:33;;;;;;;;;;;;;;;1.05;83.08;100016.64;1721662;81;20163;-76
2021/03/03 02:04:00;;;;;;;;;;;;;;;1.05;83.09;100016.64;1728821;82;20166;-78
2021/03/03 02:06:47;;;;;;;;;;;;;;;1.05;82.95;100017.99;1748078;81;20243;-77
2021/03/03 02:09:18;;;;;;;;;;;;;;;1.03;82.86;100020.05;1749352;82;20173;-76
2021/03/03 02:12:10;;;;;;;;;;;;;;;1.02;82.68;100020.56;1722468;81;20687;-75
2021/03/03 02:14:38;;;;;;;;;;;;;;;1.03;82.70;100027.63;1720238;82;20273;-76
2021/03/03 02:17:05;;;;;;;;;;;;;;;1.03;82.54;100033.53;1736689;81;20165;-77
2021/03/03 02:19:36;;;;;;;;;;;;;;;1.00;82.57;100036.60;1713401;82;20193;-77
2021/03/03 02:22:09;;;;;;;;;;;;;;;1.00;82.29;100039.30;1748122;81;20243;-74
2021/03/03 02:24:46;;;;;;;;;;;;;;;1.00;82.17;100041.48;1729199;82;20627;-76
2021/03/03 02:27:14;;;;;;;;;;;;;;;1.01;82.08;100051.76;1731617;82;20174;-75
2021/03/03 02:29:41;;;;;;;;;;;;;;;1.00;82.06;100050.08;1731174;81;20162;-77
2021/03/03 02:32:09;;;;;;;;;;;;;;;0.99;82.13;100055.13;1737368;82;20153;-76
2021/03/03 02:34:37;;;;;;;;;;;;;;;0.98;82.14;100061.06;1742945;81;20246;-75
2021/03/03 02:37:04;;;;;;;;;;;;;;;0.98;82.07;100062.91;1749012;82;20483;-76
2021/03/03 02:39:32;;;;;;;;;;;;;;;0.96;82.07;100061.73;1735154;81;20206;-76
2021/03/03 02:42:00;;;;;;;;;;;;;;;0.97;82.05;100067.97;1749608;82;20174;-76
2021/03/03 02:44:28;;;;;;;;;;;;;;;0.96;82.04;100085.19;1771959;80;20187;-76
2021/03/03 02:46:56;;;;;;;;;;;;;;;0.96;81.79;100084.64;1744432;81;20239;-76
2021/03/03 02:49:24;;;;;;;;;;;;;;;0.95;81.88;100090.23;1766554;80;20509;-75
2021/03/03 02:51:52;;;;;;;;;;;;;;;0.96;81.81;100088.69;1727726;83;20482;-75
2021/03/03 02:54:19;;;;;;;;;;;;;;;0.95;81.73;100099.67;1736121;81;20184;-76
2021/03/03 02:56:46;;;;;;;;;;;;;;;0.94;81.53;100093.94;1727986;83;20497;-75
2021/03/03 02:59:18;;;;;;;;;;;;;;;0.94;81.56;100102.03;1727711;81;20193;-77
2021/03/03 03:01:48;;;;;;;;;;;;;;;0.93;81.55;100099.03;1753699;82;20288;-76
2021/03/03 03:04:36;;;;;;;;;;;;;;;0.92;81.51;100103.58;1735040;81;20251;-76
2021/03/03 03:07:21;;;;;;;;;;;;;;;0.92;81.26;100100.04;1727874;82;20171;-76
2021/03/03 03:10:09;;;;;;;;;;;;;;;0.92;81.23;100104.92;1744631;81;20188;-76
2021/03/03 03:12:55;;;;;;;;;;;;;;;0.92;80.63;100109.47;1727898;83;20160;-76
2021/03/03 03:15:40;;;;;;;;;;;;;;;0.92;80.28;100121.59;1726811;81;20144;-74
2021/03/03 03:18:14;;;;;;;;;;;;;;;0.91;80.26;100109.98;1739291;82;20475;-75
2021/03/03 03:20:42;;;;;;;;;;;;;;;0.93;80.18;100113.84;1736649;81;20150;-76
2021/03/03 03:23:12;;;;;;;;;;;;;;;0.93;79.53;100117.89;1729332;82;20152;-76
2021/03/03 03:25:40;;;;;;;;;;;;;;;0.94;79.31;100119.54;1727328;81;20514;-77
2021/03/03 03:28:08;;;;;;;;;;;;;;;0.94;79.38;100123.58;1733060;82;20552;-78
2021/03/03 03:30:35;;;;;;;;;;;;;;;0.92;79.31;100122.94;1750851;82;20155;-79
2021/03/03 03:33:03;;;;;;;;;;;;;;;0.94;79.30;100124.93;1725720;81;20482;-80
2021/03/03 03:35:32;;;;;;;;;;;;;;;0.91;78.98;100128.84;1727741;83;20220;-78
2021/03/03 03:37:59;;;;;;;;;;;;;;;0.92;78.76;100128.33;1733425;81;20169;-78
2021/03/03 03:40:28;;;;;;;;;;;;;;;0.91;78.84;100128.84;1730949;82;20467;-79
2021/03/03 03:42:56;;;;;;;;;;;;;;;0.91;78.82;100130.72;1739290;81;20203;-79
2021/03/03 03:45:23;;;;;;;;;;;;;;;0.91;78.90;100140.16;1727818;83;20191;-77
2021/03/03 03:47:51;;;;;;;;;;;;;;;0.91;78.87;100136.11;1739176;81;20475;-79
2021/03/03 03:50:22;;;;;;;;;;;;;;;0.87;78.64;100138.84;1728882;83;20169;-76
2021/03/03 03:52:54;;;;;;;;;;;;;;;0.84;79.02;100135.17;1732675;81;20257;-76
2021/03/03 03:55:36;;;;;;;;;;;;;;;0.83;79.03;100142.45;1756364;82;20225;-80
2021/03/03 03:58:04;;;;;;;;;;;;;;;0.83;78.89;100142.45;1735309;81;20497;-78
2021/03/03 04:00:32;;;;;;;;;;;;;;;0.82;78.95;100140.77;1728111;83;20160;-77
2021/03/03 04:03:00;;;;;;;;;;;;;;;0.82;78.79;100139.41;1727215;81;20279;-77
2021/03/03 04:05:27;;;;;;;;;;;;;;;0.82;78.68;100142.61;1746999;82;20565;-75
2021/03/03 04:07:55;;;;;;;;;;;;;;;0.81;78.70;100142.31;1758448;82;20451;-79
2021/03/03 04:10:26;;;;;;;;;;;;;;;0.82;78.77;100140.77;1727210;81;20164;-76
2021/03/03 04:12:54;;;;;;;;;;;;;;;0.83;78.69;100155.91;1730215;82;20150;-78
2021/03/03 04:15:22;;;;;;;;;;;;;;;0.83;78.51;100146.48;1752435;81;20177;-77
2021/03/03 04:17:50;;;;;;;;;;;;;;;0.85;78.65;100144.94;1724499;83;20152;-78
2021/03/03 04:20:19;;;;;;;;;;;;;;;0.87;78.50;100159.05;1732467;81;20184;-75
2021/03/03 04:22:47;;;;;;;;;;;;;;;0.83;78.21;100145.64;1738976;82;20476;-78
2021/03/03 04:25:16;;;;;;;;;;;;;;;0.82;78.24;100164.17;1755916;81;20169;-76
2021/03/03 04:27:44;;;;;;;;;;;;;;;0.82;77.82;100167.70;1755158;82;20173;-75
2021/03/03 04:30:14;;;;;;;;;;;;;;;0.83;77.94;100160.46;1727137;81;20212;-75
2021/03/03 04:32:42;;;;;;;;;;;;;;;0.84;78.00;100166.16;1727829;82;20181;-77
2021/03/03 04:35:10;;;;;;;;;;;;;;;0.84;77.70;100170.20;1735236;81;20229;-73
2021/03/03 04:37:39;;;;;;;;;;;;;;;0.85;77.40;100177.27;1733884;82;20164;-76
2021/03/03 04:40:08;;;;;;;;;;;;;;;0.86;77.72;100181.64;1727221;81;20180;-76
2021/03/03 04:42:35;;;;;;;;;;;;;;;0.88;77.33;100187.67;1727663;83;20179;-76
2021/03/03 04:45:04;;;;;;;;;;;;;;;0.90;77.50;100189.16;1727451;81;20179;-77
2021/03/03 04:47:31;;;;;;;;;;;;;;;0.91;77.38;100193.50;1735201;81;20165;-76
2021/03/03 04:50:00;;;;;;;;;;;;;;;0.93;77.10;100194.18;1729549;82;20191;-78
2021/03/03 04:52:27;;;;;;;;;;;;;;;0.95;77.00;100199.37;1744256;81;20216;-76
2021/03/03 04:54:55;;;;;;;;;;;;;;;0.97;76.92;100203.55;1730096;82;20153;-77
2021/03/03 04:57:23;;;;;;;;;;;;;;;0.99;77.08;100204.69;1728537;81;20198;-82
2021/03/03 04:59:50;;;;;;;;;;;;;;;1.00;77.19;100206.37;1712676;83;20244;-77
2021/03/03 05:02:18;;;;;;;;;;;;;;;0.99;76.99;100210.08;1725210;82;20195;-75
2021/03/03 05:04:45;;;;;;;;;;;;;;;1.01;77.19;100210.75;1734786;82;20317;-76
2021/03/03 05:07:13;;;;;;;;;;;;;;;1.01;77.25;100209.41;1734932;81;20223;-73
2021/03/03 05:09:41;;;;;;;;;;;;;;;1.02;77.41;100213.75;1772633;81;20160;-73
2021/03/03 05:12:09;;;;;;;;;;;;;;;1.05;77.39;100216.08;1764194;80;20523;-73
2021/03/03 05:14:37;;;;;;;;;;;;;;;1.05;77.34;100221.47;1764106;81;20176;-75
2021/03/03 05:17:05;;;;;;;;;;;;;;;1.03;77.68;100215.44;1749659;80;20301;-75
2021/03/03 05:19:32;;;;;;;;;;;;;;;1.04;77.39;100222.48;1756811;81;20506;-76
2021/03/03 05:22:00;;;;;;;;;;;;;;;1.01;77.31;100225.58;1755284;81;20166;-76
2021/03/03 05:24:28;;;;;;;;;;;;;;;0.99;76.75;100233.83;1736751;82;20278;-77
2021/03/03 05:26:55;;;;;;;;;;;;;;;0.99;76.61;100240.56;1732241;82;20208;-73
2021/03/03 05:29:23;;;;;;;;;;;;;;;0.99;76.65;100241.07;1737954;81;20186;-74
2021/03/03 05:31:51;;;;;;;;;;;;;;;0.99;76.48;100247.80;1733382;81;20259;-76
2021/03/03 05:34:19;;;;;;;;;;;;;;;0.99;76.41;100254.55;1731874;81;20183;-73
2021/03/03 05:36:46;;;;;;;;;;;;;;;0.99;76.45;100262.12;1734984;81;20197;-74
2021/03/03 05:39:14;;;;;;;;;;;;;;;1.00;76.71;100265.66;1735684;81;20173;-73
2021/03/03 05:41:42;;;;;;;;;;;;;;;1.00;76.41;100272.40;1730984;82;20566;-75
2021/03/03 05:44:10;;;;;;;;;;;;;;;0.98;76.19;100269.91;1730202;81;20470;-76
2021/03/03 05:46:39;;;;;;;;;;;;;;;0.98;76.63;100271.75;1731969;81;20267;-77
2021/03/03 05:49:06;;;;;;;;;;;;;;;0.98;76.63;100278.49;1732557;81;20176;-79
2021/03/03 05:51:35;;;;;;;;;;;;;;;1.00;76.56;100277.79;1740258;82;20150;-78
2021/03/03 05:54:04;;;;;;;;;;;;;;;1.02;76.69;100281.97;1735754;81;20280;-77
2021/03/03 05:56:32;;;;;;;;;;;;;;;1.01;76.12;100280.28;1737467;81;20196;-79
2021/03/03 05:59:00;;;;;;;;;;;;;;;1.00;76.19;100285.88;1732044;81;20189;-76
2021/03/03 06:01:29;;;;;;;;;;;;;;;0.99;75.95;100297.66;1697756;81;20162;-75
2021/03/03 06:03:58;;;;;;;;;;;;;;;0.99;76.05;100286.88;1732104;81;20185;-75
2021/03/03 06:06:26;;;;;;;;;;;;;;;0.99;76.37;100281.49;1740511;81;20588;-75
2021/03/03 06:08:54;;;;;;;;;;;;;;;1.01;76.45;100288.91;1725395;81;20266;-77
2021/03/03 06:11:22;;;;;;;;;;;;;;;1.02;76.69;100295.95;1724586;81;20159;-82
2021/03/03 06:13:50;;;;;;;;;;;;;;;1.02;76.62;100298.64;1732841;82;20479;-79
2021/03/03 06:16:17;;;;;;;;;;;;;;;1.00;76.86;100302.89;1727752;81;20191;-77
2021/03/03 06:18:45;;;;;;;;;;;;;;;0.98;76.53;100306.79;1729309;83;20181;-80
2021/03/03 06:21:24;;;;;;;;;;;;;;;0.99;76.54;100305.75;1727553;81;20187;-77
2021/03/03 06:24:00;;;;;;;;;;;;;;;1.01;75.91;100307.23;1726198;83;20270;-79
2021/03/03 06:26:28;;;;;;;;;;;;;;;1.02;76.06;100313.47;1743769;81;20168;-79
2021/03/03 06:28:56;;;;;;;;;;;;;;;1.02;75.65;100321.05;1730113;82;20205;-80
2021/03/03 06:31:35;;;;;;;;;;;;;;;1.02;75.54;100325.09;1738144;81;20171;-79
2021/03/03 06:34:14;;;;;;;;;;;;;;;1.02;75.59;100322.90;1733906;81;20161;-79
2021/03/03 06:36:43;;;;;;;;;;;;;;;1.03;75.83;100317.34;1746522;81;20248;-80
2021/03/03 06:39:26;;;;;;;;;;;;;;;1.07;75.79;100317.79;1748596;82;20217;-75
2021/03/03 06:41:57;;;;;;;;;;;;;;;1.15;75.68;100310.96;1730919;81;20514;-77
2021/03/03 06:44:25;;;;;;;;;;;;;;;1.18;75.27;100310.59;1728237;82;20171;-79
2021/03/03 06:47:07;;;;;;;;;;;;;;;1.22;75.29;100313.23;1737533;81;20154;-75
2021/03/03 06:49:35;;;;;;;;;;;;;;;1.27;74.99;100317.05;1737606;82;20491;-79
2021/03/03 06:52:03;;;;;;;;;;;;;;;1.31;74.75;100322.91;1741441;81;20492;-75
2021/03/03 06:54:31;;;;;;;;;;;;;;;1.33;74.26;100317.31;1725621;82;20270;-77
2021/03/03 06:57:01;;;;;;;;;;;;;;;1.34;74.04;100323.05;1743331;81;20182;-75
2021/03/03 06:59:30;;;;;;;;;;;;;;;1.32;73.79;100325.91;1703623;82;20497;-77
2021/03/03 07:02:14;;;;;;;;;;;;;;;1.28;73.76;100331.36;1743656;81;20459;-75
2021/03/03 07:04:44;;;;;;;;;;;;;;;1.28;73.71;100334.06;1713840;82;20348;-74
2021/03/03 07:07:13;;;;;;;;;;;;;;;1.29;73.51;100328.47;1724785;81;20483;-75
2021/03/03 07:09:44;;;;;;;;;;;;;;;1.33;73.41;100334.84;1732753;81;20178;-75
2021/03/03 07:12:13;;;;;;;;;;;;;;;1.36;73.73;100336.66;1746388;82;20162;-76
2021/03/03 07:14:43;;;;;;;;;;;;;;;1.42;73.20;100339.94;1727006;81;20180;-76
2021/03/03 07:17:17;;;;;;;;;;;;;;;1.44;72.31;100337.08;1726057;81;20498;-75
2021/03/03 07:19:48;;;;;;;;;;;;;;;1.45;71.98;100353.06;1710801;82;20233;-75
2021/03/03 07:22:25;;;;;;;;;;;;;;;1.43;71.08;100352.41;1734031;82;20169;-74
2021/03/03 07:24:58;;;;;;;;;;;;;;;1.38;71.28;100353.99;1731740;81;20165;-75
2021/03/03 07:27:26;;;;;;;;;;;;;;;1.36;71.33;100339.36;1737513;82;20524;-75
2021/03/03 07:30:02;;;;;;;;;;;;;;;1.40;71.27;100350.59;1744419;81;20150;-75
2021/03/03 07:32:31;;;;;;;;;;;;;;;1.44;71.47;100355.95;1729750;81;20165;-78
2021/03/03 07:35:00;;;;;;;;;;;;;;;1.46;70.84;100356.09;1723925;81;20184;-78
2021/03/03 07:37:35;;;;;;;;;;;;;;;1.48;71.18;100355.39;1721015;83;20196;-78
2021/03/03 07:40:13;;;;;;;;;;;;;;;1.47;70.87;100353.70;1689086;82;20256;-77
2021/03/03 07:42:44;;;;;;;;;;;;;;;1.51;71.24;100371.20;1716839;82;20156;-74
2021/03/03 07:45:14;;;;;;;;;;;;;;;1.50;71.97;100365.98;1723899;81;20165;-78
2021/03/03 07:47:42;;;;;;;;;;;;;;;1.47;72.10;100371.23;1739553;82;20278;-75
2021/03/03 07:50:13;;;;;;;;;;;;;;;1.48;71.98;100368.87;1699881;81;20161;-76
2021/03/03 07:52:47;;;;;;;;;;;;;;;1.46;72.04;100377.67;1741345;81;20153;-75
2021/03/03 07:55:15;;;;;;;;;;;;;;;1.46;71.26;100384.41;1724361;81;20514;-76
2021/03/03 07:57:48;;;;;;;;;;;;;;;1.48;70.80;100391.80;1722472;81;20179;-78
2021/03/03 08:00:26;;;;;;;;;;;;;;;1.50;70.41;100388.39;1746892;81;20251;-77
2021/03/03 08:02:56;;;;;;;;;;;;;;;1.49;69.37;100405.63;1737483;81;20601;-78
2021/03/03 08:05:31;;;;;;;;;;;;;;;1.45;69.30;100402.11;1757055;81;20612;-78
2021/03/03 08:08:26;;;;;;;;;;;;;;;1.44;69.66;100395.06;1746674;81;20206;-76
2021/03/03 08:11:05;;;;;;;;;;;;;;;1.41;69.06;100416.50;1731571;82;20172;-76
2021/03/03 08:13:39;;;;;;;;;;;;;;;1.39;69.15;100404.22;1723838;81;20813;-78
2021/03/03 08:16:08;;;;;;;;;;;;;;;1.38;69.50;100417.36;1725358;81;20260;-75
2021/03/03 08:18:50;;;;;;;;;;;;;;;1.36;69.69;100409.47;1767990;80;20146;-76
2021/03/03 08:21:23;;;;;;;;;;;;;;;1.36;69.32;100410.82;1737069;78;20200;-74
2021/03/03 08:23:55;;;;;;;;;;;;;;;1.35;69.40;100419.08;1759028;80;20231;-77
2021/03/03 08:26:29;;;;;;;;;;;;;;;1.30;69.43;100414.25;1764476;80;20153;-77
2021/03/03 08:29:03;;;;;;;;;;;;;;;1.30;69.18;100415.59;1755647;80;20192;-78
2021/03/03 08:31:30;;;;;;;;;;;;;;;1.31;68.68;100418.62;1732195;80;20218;-77
2021/03/03 08:33:58;;;;;;;;;;;;;;;1.41;68.52;100422.39;1747149;80;20216;-77
2021/03/03 08:36:34;;;;;;;;;;;;;;;1.46;67.43;100416.77;1758696;80;20161;-78
2021/03/03 08:39:05;;;;;;;;;;;;;;;1.52;67.94;100417.90;1745506;80;20179;-78
2021/03/03 08:41:33;;;;;;;;;;;;;;;1.58;68.91;100427.41;1710607;82;20205;-79
2021/03/03 08:44:04;;;;;;;;;;;;;;;1.62;67.84;100426.00;1709681;82;20169;-77
2021/03/03 08:46:46;;;;;;;;;;;;;;;1.66;67.75;100430.53;1720618;82;20181;-80
2021/03/03 08:49:18;;;;;;;;;;;;;;;1.72;67.95;100433.30;1690501;82;20555;-74
2021/03/03 08:51:46;;;;;;;;;;;;;;;1.75;66.77;100438.84;1716982;82;20180;-82
2021/03/03 08:54:19;;;;;;;;;;;;;;;1.70;66.74;100440.75;1710494;82;20149;-76
2021/03/03 08:56:52;;;;;;;;;;;;;;;1.65;65.85;100459.36;1718268;82;20284;-77
2021/03/03 08:59:30;;;;;;;;;;;;;;;1.68;65.58;100439.27;1734889;82;20260;-76
2021/03/03 09:02:12;;;;;;;;;;;;;;;1.77;65.13;100445.72;1718095;82;20311;-75
2021/03/03 09:04:46;;;;;;;;;;;;;;;1.91;64.42;100446.74;1710734;82;20272;-78
2021/03/03 09:07:21;;;;;;;;;;;;;;;1.95;64.71;100443.98;1690511;84;20190;-75
2021/03/03 09:09:52;;;;;;;;;;;;;;;2.02;63.04;100464.33;1733546;82;20265;-76
2021/03/03 09:12:21;;;;;;;;;;;;;;;1.99;62.84;100458.80;1710233;82;20478;-76
2021/03/03 09:14:50;;;;;;;;;;;;;;;1.98;62.50;100444.11;1710543;82;20471;-79
2021/03/03 09:17:26;;;;;;;;;;;;;;;2.01;62.03;100455.89;1710796;82;20535;-76
2021/03/03 09:19:56;;;;;;;;;;;;;;;2.00;62.19;100452.89;1715507;82;20488;-78
2021/03/03 09:22:29;;;;;;;;;;;;;;;2.01;62.65;100480.19;1735572;82;20167;-77
2021/03/03 09:25:12;;;;;;;;;;;;;;;1.98;62.42;100477.86;1715793;82;20189;-77
2021/03/03 09:27:40;;;;;;;;;;;;;;;1.92;62.83;100477.58;1689301;82;20186;-78
2021/03/03 09:30:09;;;;;;;;;;;;;;;1.85;62.77;100483.91;1716663;82;20515;-77
2021/03/03 09:32:39;;;;;;;;;;;;;;;1.78;63.00;100493.28;1717905;82;20265;-76
2021/03/03 09:35:08;;;;;;;;;;;;;;;1.72;62.27;100488.62;1724428;82;20191;-78
2021/03/03 09:37:41;;;;;;;;;;;;;;;1.67;61.49;100497.78;1724066;82;20580;-75
2021/03/03 09:40:11;;;;;;;;;;;;;;;1.69;60.55;100490.87;1720256;81;20571;-76
2021/03/03 09:42:44;;;;;;;;;;;;;;;1.75;60.04;100495.00;1706167;83;20212;-76
2021/03/03 09:45:17;;;;;;;;;;;;;;;1.84;58.63;100485.80;1711514;83;20233;-76
2021/03/03 09:47:45;;;;;;;;;;;;;;;1.96;57.31;100505.55;1719804;82;20177;-79
2021/03/03 09:50:33;;;;;;;;;;;;;;;2.08;57.81;100487.85;1726109;77;20633;31
2021/03/03 09:53:02;;;;;;;;;;;;;;;2.16;57.08;100506.66;1715450;82;20176;-80
2021/03/03 09:55:34;;;;;;;;;;;;;;;2.27;55.88;100507.53;1717836;81;20742;-83
2021/03/03 09:58:03;;;;;;;;;;;;;;;2.32;55.54;100491.60;1729503;82;20177;-81
2021/03/03 10:00:35;;;;;;;;;;;;;;;2.23;56.54;100492.21;1732112;82;20203;-80
2021/03/03 10:03:12;;;;;;;;;;;;;;;2.18;57.20;100508.14;1701967;82;20154;-81
2021/03/03 10:05:43;;;;;;;;;;;;;;;2.12;56.58;100502.16;1723946;83;20302;-83
2021/03/03 10:08:13;;;;;;;;;;;;;;;2.08;57.41;100512.16;1714541;82;20154;-80
2021/03/03 10:10:47;;;;;;;;;;;;;;;2.03;56.65;100497.87;1711714;83;20244;-83
2021/03/03 10:13:24;;;;;;;;;;;;;;;2.01;56.43;100495.88;1716809;83;20567;-80
2021/03/03 10:15:54;;;;;;;;;;;;;;;2.02;56.47;100512.41;1718456;83;20161;-81
2021/03/03 10:18:21;;;;;;;;;;;;;;;2.06;55.76;100505.60;1688425;83;20140;-76
2021/03/03 10:20:53;;;;;;;;;;;;;;;2.12;55.95;100491.36;1720117;83;20298;-78
2021/03/03 10:23:23;;;;;;;;;;;;;;;2.17;56.30;100493.49;1721339;83;20489;-76
2021/03/03 10:25:52;;;;;;;;;;;;;;;2.27;55.74;100508.89;1716838;83;20194;-74
2021/03/03 10:28:24;;;;;;;;;;;;;;;2.21;54.64;100512.33;1717575;83;20551;-74
2021/03/03 10:30:54;;;;;;;;;;;;;;;2.15;53.90;100510.41;1717417;82;20145;-77
2021/03/03 10:33:27;;;;;;;;;;;;;;;2.13;55.04;100505.67;1717754;83;20168;-76
2021/03/03 10:35:59;;;;;;;;;;;;;;;2.21;55.58;100497.48;1714403;83;20286;-82
2021/03/03 10:38:28;;;;;;;;;;;;;;;2.34;54.65;100508.45;1724663;82;20187;-81
2021/03/03 10:41:00;;;;;;;;;;;;;;;2.34;53.95;100512.50;1712341;82;20197;-83
2021/03/03 10:43:28;;;;;;;;;;;;;;;2.32;53.98;100518.10;1716838;83;20170;-82
2021/03/03 10:46:13;;;;;;;;;;;;;;;2.36;54.03;100522.59;1711179;81;20225;-82
2021/03/03 10:48:42;;;;;;;;;;;;;;;2.33;53.24;100513.52;1709306;82;20167;-83
2021/03/03 10:51:12;;;;;;;;;;;;;;;2.34;53.20;100531.41;1708998;83;20578;-75
2021/03/03 10:53:53;;;;;;;;;;;;;;;2.33;53.26;100528.37;1700434;83;20210;-78
2021/03/03 10:56:44;;;;;;;;;;;;;;;2.33;52.68;100526.52;1706709;82;20186;-74
2021/03/03 10:59:31;;;;;;;;;;;;;;;2.34;51.65;100543.05;1673207;84;20462;-75
2021/03/03 11:02:01;;;;;;;;;;;;;;;2.36;52.17;100540.15;1716546;83;20155;-78
2021/03/03 11:05:05;;;;;;;;;;;;;;;2.35;52.40;100537.95;1704654;83;20193;-80
2021/03/03 11:07:37;;;;;;;;;;;;;;;2.36;51.70;100525.30;1709419;82;20263;-75
2021/03/03 11:10:07;;;;;;;;;;;;;;;2.32;50.83;100544.27;1716593;81;20168;-80
2021/03/03 11:12:46;;;;;;;;;;;;;;;2.28;51.65;100534.84;1677091;83;20256;-79
2021/03/03 11:15:17;;;;;;;;;;;;;;;2.28;52.05;100538.90;1714586;83;20283;-77
2021/03/03 11:17:49;;;;;;;;;;;;;;;2.37;52.95;100533.73;1697389;82;20320;-80
2021/03/03 11:20:32;;;;;;;;;;;;;;;2.41;52.41;100544.47;1689142;83;20184;-78
2021/03/03 11:23:15;;;;;;;;;;;;;;;2.46;53.20;100529.38;1719533;82;20590;-81
2021/03/03 11:25:45;;;;;;;;;;;;;;;2.55;52.43;100532.82;1716400;83;20231;-78
2021/03/03 11:28:18;;;;;;;;;;;;;;;2.55;52.30;100528.77;1720868;83;20159;-75
2021/03/03 11:30:46;;;;;;;;;;;;;;;2.58;52.08;100527.05;1697278;83;20196;-76
2021/03/03 11:33:13;;;;;;;;;;;;;;;2.60;51.45;100541.19;1678684;84;20163;-82
2021/03/03 11:35:42;;;;;;;;;;;;;;;2.59;49.96;100539.50;1681944;84;20610;-75
2021/03/03 11:38:11;;;;;;;;;;;;;;;2.54;50.82;100531.13;1706744;82;20214;-76
2021/03/03 11:40:38;;;;;;;;;;;;;;;2.48;52.13;100539.48;1698789;83;20467;-77
2021/03/03 11:43:06;;;;;;;;;;;;;;;2.53;50.47;100542.95;1685579;84;20179;-78
2021/03/03 11:45:34;;;;;;;;;;;;;;;2.57;50.52;100552.37;1735782;81;20350;-80
2021/03/03 11:48:02;;;;;;;;;;;;;;;2.63;50.26;100546.22;1732037;82;20177;-76
2021/03/03 11:50:30;;;;;;;;;;;;;;;2.62;49.56;100545.05;1723077;81;20171;-74
2021/03/03 11:52:58;;;;;;;;;;;;;;;2.59;49.40;100535.45;1721873;82;20223;-77
2021/03/03 11:55:26;;;;;;;;;;;;;;;2.62;49.88;100543.69;1688455;83;20156;-77
2021/03/03 11:57:54;;;;;;;;;;;;;;;2.60;50.04;100542.55;1720457;82;20260;-75
2021/03/03 12:00:24;;;;;;;;;;;;;;;2.58;49.70;100545.95;1728650;82;20306;-76
2021/03/03 12:02:54;;;;;;;;;;;;;;;2.60;50.41;100547.95;1711388;82;20169;-75
2021/03/03 12:05:23;;;;;;;;;;;;;;;2.58;48.47;100543.77;1712557;82;20221;-75
2021/03/03 12:07:51;;;;;;;;;;;;;;;2.55;47.86;100544.44;1702591;84;20479;-77
2021/03/03 12:10:19;;;;;;;;;;;;;;;2.51;47.32;100553.12;1698669;83;20238;-75
2021/03/03 12:12:47;;;;;;;;;;;;;;;2.50;47.58;100559.03;1681244;84;20179;-74
2021/03/03 12:15:15;;;;;;;;;;;;;;;2.49;47.87;100545.72;1708054;83;20193;-76
2021/03/03 12:17:43;;;;;;;;;;;;;;;2.49;48.13;100557.88;1710697;82;20181;-73
2021/03/03 12:20:13;;;;;;;;;;;;;;;2.44;46.64;100560.31;1716202;82;20182;-74
2021/03/03 12:22:40;;;;;;;;;;;;;;;2.42;47.10;100552.41;1679639;84;20165;-76
2021/03/03 12:25:09;;;;;;;;;;;;;;;2.44;46.64;100563.02;1703317;83;20165;-75
2021/03/03 12:27:37;;;;;;;;;;;;;;;2.46;47.63;100556.91;1689270;84;20177;-75
2021/03/03 12:30:06;;;;;;;;;;;;;;;2.48;47.95;100558.89;1701593;82;20262;-73
2021/03/03 12:32:34;;;;;;;;;;;;;;;2.54;48.56;100564.40;1723386;83;20252;-73
2021/03/03 12:35:01;;;;;;;;;;;;;;;2.56;46.73;100565.04;1723990;83;20183;-77
2021/03/03 12:37:30;;;;;;;;;;;;;;;2.54;47.94;100561.70;1728337;82;20486;-76
2021/03/03 12:39:58;;;;;;;;;;;;;;;2.55;48.54;100561.19;1705406;83;20189;-76
2021/03/03 12:42:26;;;;;;;;;;;;;;;2.59;49.75;100563.83;1704303;81;20206;-77
2021/03/03 12:44:53;;;;;;;;;;;;;;;2.62;48.56;100574.26;1701666;84;20169;-77
2021/03/03 12:47:21;;;;;;;;;;;;;;;2.63;49.36;100567.00;1702900;83;20185;-74
2021/03/03 12:49:51;;;;;;;;;;;;;;;2.65;50.02;100568.98;1713524;83;20173;-74
2021/03/03 12:52:18;;;;;;;;;;;;;;;2.69;49.37;100557.60;1713457;83;20457;-76
2021/03/03 12:54:46;;;;;;;;;;;;;;;2.69;50.26;100556.25;1732744;83;20254;-77
2021/03/03 12:57:14;;;;;;;;;;;;;;;2.71;49.48;100565.00;1679233;84;20240;-80
2021/03/03 12:59:42;;;;;;;;;;;;;;;2.71;49.76;100556.89;1704659;84;20226;-78
2021/03/03 13:02:10;;;;;;;;;;;;;;;2.75;49.58;100553.31;1724174;82;20140;-79
2021/03/03 13:04:38;;;;;;;;;;;;;;;2.76;48.69;100559.86;1703395;83;20174;-82